South Woodstock, Connecticut
Current Conditions -  °F | °C
As of 1:52 AM on Friday 28 Nov 2014 (Local Time) from KIJD Reporting Station
Overcast Overcast  
Wind Chill: 27°   Ceiling: 6000
Heat Index: 32°   Visibility: 10mi
Dew Point: 27°   Wind: 5mph
Humidity: 82%   Direction: 330°NNW
Pressure: 30.01"   Gusts: NA
Location:  41.93°N, 71.96°W
Report Text: KIJD 280652Z AUTO 33004KT 10SM SCT050 OVC060 00/M03 A3001 RMK AO2 SLP162 T00001028
Loading
Personal Weather Stations






























Interactive Weather Map New forecast layout! Learn more

10-Day Weather Forecast

Advertisements
Track Severe Weather on mobile